createdAt,value
2018-12-10T00:01:42.329Z,79.50
2018-12-10T00:04:23.993Z,80.20
2018-12-10T00:07:05.991Z,80.00
2018-12-10T00:09:47.289Z,79.90
2018-12-10T00:12:28.873Z,79.90
2018-12-10T00:15:10.535Z,80.10
2018-12-10T00:17:52.554Z,80.30
2018-12-10T00:20:33.371Z,80.80
2018-12-10T00:23:14.931Z,81.20
2018-12-10T00:25:56.600Z,81.80
2018-12-10T00:28:38.394Z,82.30
2018-12-10T00:31:20.526Z,83.10
2018-12-10T00:34:01.386Z,82.90
2018-12-10T00:36:43.160Z,83.20
2018-12-10T00:39:25.468Z,83.90
2018-12-10T00:42:06.768Z,84.80
2018-12-10T00:44:48.743Z,84.00
2018-12-10T00:47:29.924Z,84.30
2018-12-10T00:50:12.247Z,84.50
2018-12-10T00:52:54.591Z,84.50
2018-12-10T00:55:36.021Z,84.60
2018-12-10T00:58:17.837Z,84.80
2018-12-10T01:00:58.913Z,84.70
2018-12-10T01:03:41.197Z,84.80
2018-12-10T01:06:22.274Z,84.70
2018-12-10T01:09:03.965Z,84.80
2018-12-10T01:11:45.709Z,85.00
2018-12-10T01:14:27.261Z,85.20
2018-12-10T01:17:09.147Z,85.80
2018-12-10T01:19:50.618Z,84.90
2018-12-10T01:22:32.523Z,84.70
2018-12-10T01:25:13.908Z,85.20
2018-12-10T01:27:55.515Z,85.00
2018-12-10T01:30:37.332Z,85.40
2018-12-10T01:33:18.980Z,85.60
2018-12-10T01:36:01.760Z,85.90
2018-12-10T01:38:43.920Z,85.80
2018-12-10T01:41:24.872Z,85.60
2018-12-10T01:44:06.165Z,85.50
2018-12-10T01:46:47.128Z,85.90
2018-12-10T01:49:28.821Z,85.90
2018-12-10T01:52:10.515Z,86.00
2018-12-10T01:54:51.997Z,85.80
2018-12-10T01:57:33.791Z,85.90
2018-12-10T02:00:15.384Z,86.00
2018-12-10T02:02:58.196Z,86.10
2018-12-10T02:05:39.896Z,86.60
2018-12-10T02:08:21.519Z,86.70
2018-12-10T02:11:02.758Z,86.80
2018-12-10T02:13:44.249Z,86.90
2018-12-10T02:16:26.040Z,87.10
2018-12-10T02:19:07.732Z,87.30
2018-12-10T02:21:50.346Z,87.10
2018-12-10T02:24:31.641Z,87.50
2018-12-10T02:27:13.225Z,87.50
2018-12-10T02:29:54.959Z,87.40
2018-12-10T02:32:36.912Z,87.60
2018-12-10T02:35:18.227Z,87.70
2018-12-10T02:38:00.085Z,87.80
2018-12-10T02:40:41.775Z,88.10
2018-12-10T02:43:23.581Z,88.20
2018-12-10T02:46:05.256Z,88.30
2018-12-10T02:48:46.847Z,88.40
2018-12-10T02:51:28.535Z,88.50
2018-12-10T02:54:10.227Z,88.70
2018-12-10T02:56:51.815Z,88.90
2018-12-10T02:59:33.407Z,88.90
2018-12-10T03:02:15.220Z,88.90
2018-12-10T03:04:56.582Z,89.00
2018-12-10T03:07:38.998Z,89.00
2018-12-10T03:10:20.483Z,89.30
2018-12-10T03:13:02.274Z,89.40
2018-12-10T03:15:43.349Z,89.40
2018-12-10T03:18:24.740Z,89.50
2018-12-10T03:21:06.241Z,89.50
2018-12-10T03:23:47.930Z,89.50
2018-12-10T03:26:29.839Z,89.50
2018-12-10T03:29:11.596Z,89.50
2018-12-10T03:31:53.699Z,89.60
2018-12-10T03:34:34.473Z,89.70
2018-12-10T03:37:16.068Z,89.50
2018-12-10T03:39:57.951Z,89.50
2018-12-10T03:42:39.642Z,89.50
2018-12-10T03:45:21.565Z,89.30
2018-12-10T03:48:02.766Z,89.00
2018-12-10T03:50:43.794Z,89.00
2018-12-10T03:53:25.654Z,88.70
2018-12-10T03:56:07.033Z,88.70
2018-12-10T03:58:48.661Z,88.40
2018-12-10T04:01:30.994Z,88.10
2018-12-10T04:04:12.863Z,87.60
2018-12-10T04:06:54.555Z,87.20
2018-12-10T04:09:35.957Z,86.70
2018-12-10T04:12:18.078Z,86.40
2018-12-10T04:14:59.629Z,85.90
2018-12-10T04:17:42.180Z,85.00
2018-12-10T04:20:24.035Z,83.80
2018-12-10T04:23:05.727Z,83.40
2018-12-10T04:25:47.521Z,82.80
2018-12-10T04:28:29.213Z,82.70
2018-12-10T04:31:10.801Z,82.10
2018-12-10T04:33:52.188Z,81.80
2018-12-10T04:36:33.877Z,81.80
2018-12-10T04:39:15.991Z,81.70
2018-12-10T04:41:57.807Z,81.70
2018-12-10T04:44:39.788Z,81.60
2018-12-10T04:47:20.976Z,81.30
2018-12-10T04:50:02.675Z,81.20
2018-12-10T04:52:44.642Z,82.00
2018-12-10T04:55:26.331Z,81.30
2018-12-10T04:58:07.712Z,81.30
2018-12-10T05:00:49.565Z,81.00
2018-12-10T05:03:31.094Z,81.20
2018-12-10T05:06:12.787Z,81.70
2018-12-10T05:08:55.549Z,81.80
2018-12-10T05:11:37.294Z,81.60
2018-12-10T05:14:18.885Z,81.50
2018-12-10T05:17:00.690Z,81.30
2018-12-10T05:19:42.368Z,81.10
2018-12-10T05:22:24.278Z,81.00
2018-12-10T05:25:05.464Z,81.00
2018-12-10T05:27:47.444Z,80.90
2018-12-10T05:30:29.234Z,80.70
2018-12-10T05:33:10.925Z,80.60
2018-12-10T05:35:52.619Z,80.80
2018-12-10T05:38:34.307Z,80.90
2018-12-10T05:41:15.998Z,80.90
2018-12-10T05:43:57.482Z,81.10
2018-12-10T05:46:39.380Z,81.20
2018-12-10T05:49:21.075Z,81.20
2018-12-10T05:52:02.864Z,81.30
2018-12-10T05:54:44.351Z,81.70
2018-12-10T05:57:26.052Z,80.90
2018-12-10T06:00:08.390Z,80.90
2018-12-10T06:02:49.222Z,80.80
2018-12-10T06:05:30.948Z,80.90
2018-12-10T06:08:12.603Z,80.70
2018-12-10T06:10:54.399Z,80.70
2018-12-10T06:13:35.988Z,80.40
2018-12-10T06:16:17.677Z,80.30
2018-12-10T06:18:59.370Z,80.40
2018-12-10T06:21:40.897Z,80.20
2018-12-10T06:24:22.442Z,79.80
2018-12-10T06:27:04.028Z,79.70
2018-12-10T06:29:46.707Z,79.50
2018-12-10T06:32:28.674Z,79.80
2018-12-10T06:35:10.525Z,79.90
2018-12-10T06:37:51.992Z,79.80
2018-12-10T06:40:33.546Z,79.70
2018-12-10T06:43:15.021Z,79.50
2018-12-10T06:45:56.788Z,79.50
2018-12-10T06:48:38.293Z,79.60
2018-12-10T06:51:20.272Z,78.80
2018-12-10T06:54:02.271Z,79.70
2018-12-10T06:56:43.859Z,79.70
2018-12-10T06:59:24.834Z,79.60
2018-12-10T07:02:06.528Z,79.70
2018-12-10T07:04:48.027Z,79.90
2018-12-10T07:07:29.804Z,79.70
2018-12-10T07:10:11.497Z,79.50
2018-12-10T07:12:53.093Z,79.50
2018-12-10T07:15:34.782Z,79.40
2018-12-10T07:18:16.367Z,79.40
2018-12-10T07:20:57.958Z,79.70
2018-12-10T07:23:39.542Z,79.30
2018-12-10T07:26:21.177Z,79.20
2018-12-10T07:29:03.641Z,79.00
2018-12-10T07:31:44.731Z,78.80
2018-12-10T07:34:26.409Z,78.20
2018-12-10T07:37:08.009Z,77.80
2018-12-10T07:39:49.832Z,76.80
2018-12-10T07:42:31.120Z,76.70
2018-12-10T07:45:12.689Z,76.10
2018-12-10T07:47:54.295Z,74.00
2018-12-10T07:50:36.046Z,72.90
2018-12-10T07:53:17.427Z,71.90
2018-12-10T07:55:58.869Z,71.10
2018-12-10T07:58:40.504Z,70.80
2018-12-10T08:01:22.407Z,69.10
2018-12-10T08:04:04.187Z,67.80
2018-12-10T08:06:45.181Z,65.00
2018-12-10T08:09:25.848Z,65.90
2018-12-10T08:12:07.626Z,63.80
2018-12-10T08:14:49.216Z,61.50
2018-12-10T08:17:30.737Z,60.60
2018-12-10T08:20:13.522Z,59.40
2018-12-10T08:22:55.210Z,57.90
2018-12-10T08:25:37.005Z,57.90
2018-12-10T08:28:18.798Z,55.50
2018-12-10T08:31:00.290Z,55.70
2018-12-10T08:33:41.847Z,54.20
2018-12-10T08:36:23.564Z,51.50
2018-12-10T08:39:06.526Z,50.40
2018-12-10T08:41:48.381Z,49.00
2018-12-10T08:44:29.676Z,47.50
2018-12-10T08:47:16.061Z,46.50
2018-12-10T08:49:54.912Z,46.20
2018-12-10T08:52:36.510Z,44.50
2018-12-10T08:55:18.748Z,43.60
2018-12-10T08:57:59.966Z,43.20
2018-12-10T09:00:41.548Z,42.00
2018-12-10T09:03:23.753Z,41.60
2018-12-10T09:06:04.828Z,40.90
2018-12-10T09:08:47.063Z,40.60
2018-12-10T09:11:28.108Z,39.00
2018-12-10T09:14:09.799Z,39.80
2018-12-10T09:16:51.303Z,38.40
2018-12-10T09:19:33.690Z,38.50
2018-12-10T09:22:14.974Z,39.10
2018-12-10T09:24:56.564Z,37.80
2018-12-10T09:27:38.092Z,37.60
2018-12-10T09:30:19.688Z,36.60
2018-12-10T09:33:01.124Z,37.10
2018-12-10T09:35:42.716Z,36.40
2018-12-10T09:38:25.224Z,35.40
2018-12-10T09:41:06.198Z,35.10
2018-12-10T09:43:47.787Z,34.60
2018-12-10T09:46:29.970Z,36.00
2018-12-10T09:49:11.228Z,35.70
2018-12-10T09:51:52.674Z,36.90
2018-12-10T09:54:34.760Z,36.70
2018-12-10T09:57:15.937Z,36.20
2018-12-10T09:59:57.729Z,36.40
2018-12-10T10:02:39.215Z,35.20
2018-12-10T10:05:21.007Z,35.10
2018-12-10T10:08:02.629Z,34.70
2018-12-10T10:10:44.290Z,35.30
2018-12-10T10:13:25.776Z,35.30
2018-12-10T10:16:07.576Z,34.10
2018-12-10T10:18:49.073Z,33.90
2018-12-10T10:21:30.569Z,35.20
2018-12-10T10:24:12.539Z,33.90
2018-12-10T10:26:55.123Z,33.70
2018-12-10T10:29:36.990Z,35.40
2018-12-10T10:32:18.579Z,36.20
2018-12-10T10:34:59.715Z,37.40
2018-12-10T10:37:41.303Z,36.80
2018-12-10T10:40:22.934Z,38.00
2018-12-10T10:43:05.096Z,39.40
2018-12-10T10:45:46.282Z,39.40
2018-12-10T10:48:28.271Z,39.70
2018-12-10T10:51:09.258Z,40.40
2018-12-10T10:53:50.122Z,40.00
2018-12-10T10:56:32.526Z,40.70
2018-12-10T10:59:13.807Z,40.80
2018-12-10T11:01:58.402Z,40.30
2018-12-10T11:04:40.058Z,40.50
2018-12-10T11:07:21.646Z,40.40
2018-12-10T11:10:03.566Z,40.10
2018-12-10T11:12:45.036Z,39.60
2018-12-10T11:15:26.836Z,40.50
2018-12-10T11:18:08.102Z,44.10
2018-12-10T11:20:50.504Z,45.20
2018-12-10T11:23:32.407Z,46.90
2018-12-10T11:26:14.098Z,49.50
2018-12-10T11:28:55.585Z,51.00
2018-12-10T11:31:37.733Z,51.80
2018-12-10T11:34:18.974Z,52.60
2018-12-10T11:37:00.554Z,53.70
2018-12-10T11:39:42.557Z,53.80
2018-12-10T11:42:25.065Z,54.40
2018-12-10T11:45:06.348Z,55.30
2018-12-10T11:47:48.077Z,55.30
2018-12-10T11:50:29.422Z,55.30
2018-12-10T11:53:11.113Z,56.20
2018-12-10T11:55:52.803Z,56.30
2018-12-10T11:58:34.409Z,55.80
2018-12-10T12:01:15.880Z,56.50
2018-12-10T12:03:57.773Z,56.40
2018-12-10T12:06:39.260Z,57.00
2018-12-10T12:09:20.173Z,55.80
2018-12-10T12:12:01.637Z,56.20
2018-12-10T12:14:42.797Z,56.20
2018-12-10T12:17:24.489Z,56.30
2018-12-10T12:20:06.283Z,57.10
2018-12-10T12:22:48.031Z,55.80
2018-12-10T12:25:29.461Z,55.60
2018-12-10T12:28:10.946Z,55.10
2018-12-10T12:30:52.845Z,54.30
2018-12-10T12:33:34.225Z,54.00
2018-12-10T12:36:16.364Z,54.30
2018-12-10T12:38:57.369Z,54.00
2018-12-10T12:41:38.727Z,53.20
2018-12-10T12:44:20.337Z,52.30
2018-12-10T12:47:02.040Z,51.00
2018-12-10T12:49:43.558Z,52.00
2018-12-10T12:52:25.535Z,51.00
2018-12-10T12:55:07.926Z,51.90
2018-12-10T12:57:49.856Z,52.60
2018-12-10T13:00:31.656Z,52.00
2018-12-10T13:03:12.837Z,52.50
2018-12-10T13:05:54.519Z,52.00
2018-12-10T13:08:36.213Z,52.90
2018-12-10T13:11:18.005Z,53.30
2018-12-10T13:13:59.596Z,54.80
2018-12-10T13:16:49.237Z,56.60
2018-12-10T13:19:25.536Z,57.20
2018-12-10T13:22:07.330Z,58.10
2018-12-10T13:24:49.564Z,58.50
2018-12-10T13:27:30.813Z,59.40
2018-12-10T13:30:13.351Z,58.80
2018-12-10T13:32:55.218Z,59.80
2018-12-10T13:35:36.774Z,59.60
2018-12-10T13:38:18.090Z,60.50
2018-12-10T13:40:59.820Z,61.30
2018-12-10T13:43:41.369Z,61.90
2018-12-10T13:46:22.959Z,62.60
2018-12-10T13:49:04.493Z,62.50
2018-12-10T13:51:46.179Z,63.30
2018-12-10T13:54:28.135Z,64.30
2018-12-10T13:57:10.849Z,64.90
2018-12-10T13:59:52.540Z,65.80
2018-12-10T14:02:33.859Z,66.20
2018-12-10T14:05:16.638Z,64.90
2018-12-10T14:07:58.230Z,65.00
2018-12-10T14:10:39.616Z,66.00
2018-12-10T14:13:21.610Z,66.50
2018-12-10T14:16:03.814Z,67.00
2018-12-10T14:18:44.889Z,68.50
2018-12-10T14:21:26.485Z,68.70
2018-12-10T14:24:08.170Z,67.80
2018-12-10T14:26:49.783Z,68.70
2018-12-10T14:29:31.347Z,68.60
2018-12-10T14:32:13.598Z,68.70
2018-12-10T14:34:55.657Z,68.40
2018-12-10T14:37:37.170Z,69.20
2018-12-10T14:40:18.626Z,71.10
2018-12-10T14:43:00.501Z,70.70
2018-12-10T14:45:42.112Z,71.70
2018-12-10T14:48:23.901Z,71.70
2018-12-10T14:51:05.388Z,72.20
2018-12-10T14:53:46.975Z,72.70
2018-12-10T14:56:29.402Z,73.00
2018-12-10T14:59:10.290Z,73.70
2018-12-10T15:01:52.146Z,74.00
2018-12-10T15:04:33.639Z,74.90
2018-12-10T15:07:15.378Z,73.10
2018-12-10T15:09:57.021Z,72.60
2018-12-10T15:12:38.817Z,72.70
2018-12-10T15:15:20.507Z,72.10
2018-12-10T15:18:02.095Z,72.80
2018-12-10T15:20:43.789Z,73.90
2018-12-10T15:23:25.475Z,74.60
2018-12-10T15:26:07.313Z,76.10
2018-12-10T15:28:48.860Z,77.70
2018-12-10T15:31:30.652Z,76.80
2018-12-10T15:34:12.961Z,77.80
2018-12-10T15:36:54.054Z,77.80
2018-12-10T15:39:35.515Z,78.20
2018-12-10T15:42:17.213Z,79.00
2018-12-10T15:44:58.906Z,79.70
2018-12-10T15:47:40.596Z,80.60
2018-12-10T15:50:22.196Z,80.30
2018-12-10T15:53:03.981Z,80.50
2018-12-10T15:55:45.786Z,81.20
2018-12-10T15:58:27.052Z,81.50
2018-12-10T16:01:08.555Z,81.70
2018-12-10T16:03:50.332Z,82.60
2018-12-10T16:06:31.962Z,82.90
2018-12-10T16:09:14.024Z,83.40
2018-12-10T16:11:56.021Z,84.60
2018-12-10T16:14:37.202Z,83.70
2018-12-10T16:17:18.890Z,84.60
2018-12-10T16:20:00.581Z,85.50
2018-12-10T16:22:42.273Z,85.40
2018-12-10T16:25:23.734Z,85.70
2018-12-10T16:28:06.415Z,86.10
2018-12-10T16:30:48.476Z,86.50
2018-12-10T16:33:29.583Z,86.80
2018-12-10T16:36:12.646Z,87.10
2018-12-10T16:38:54.471Z,87.10
2018-12-10T16:41:36.161Z,87.10
2018-12-10T16:44:17.214Z,87.70
2018-12-10T16:46:59.030Z,88.20
2018-12-10T16:49:40.434Z,88.90
2018-12-10T16:52:22.210Z,88.10
2018-12-10T16:55:03.796Z,88.40
2018-12-10T16:57:46.002Z,88.60
2018-12-10T17:00:26.976Z,88.60
2018-12-10T17:03:08.772Z,88.90
2018-12-10T17:05:50.564Z,89.10
2018-12-10T17:08:32.369Z,89.20
2018-12-10T17:11:13.678Z,89.10
2018-12-10T17:13:55.847Z,89.10
2018-12-10T17:16:36.608Z,89.20
2018-12-10T17:19:18.305Z,89.20
2018-12-10T17:22:00.092Z,89.40
2018-12-10T17:24:41.680Z,89.10
2018-12-10T17:27:23.883Z,89.50
2018-12-10T17:30:04.863Z,90.00
2018-12-10T17:32:46.550Z,90.10
2018-12-10T17:35:28.218Z,90.00
2018-12-10T17:38:09.775Z,90.10
2018-12-10T17:40:51.214Z,90.20
2018-12-10T17:43:34.154Z,90.20
2018-12-10T17:46:15.620Z,90.30
2018-12-10T17:48:57.925Z,90.30
2018-12-10T17:51:39.770Z,90.40
2018-12-10T17:54:20.902Z,90.40
2018-12-10T17:57:03.036Z,90.50
2018-12-10T17:59:44.696Z,90.70
2018-12-10T18:02:25.872Z,90.70
2018-12-10T18:05:07.252Z,90.70
2018-12-10T18:07:48.943Z,90.80
2018-12-10T18:10:30.333Z,90.90
2018-12-10T18:13:12.278Z,91.00
2018-12-10T18:15:53.813Z,91.00
2018-12-10T18:18:35.407Z,91.00
2018-12-10T18:21:18.220Z,91.10
2018-12-10T18:23:59.848Z,91.20
2018-12-10T18:26:42.010Z,91.20
2018-12-10T18:29:23.393Z,91.20
2018-12-10T18:32:05.416Z,91.30
2018-12-10T18:34:46.676Z,91.60
2018-12-10T18:37:28.377Z,91.30
2018-12-10T18:40:10.766Z,91.70
2018-12-10T18:42:51.952Z,91.40
2018-12-10T18:45:33.600Z,91.50
2018-12-10T18:48:15.142Z,91.50
2018-12-10T18:50:56.934Z,91.60
2018-12-10T18:53:38.615Z,91.50
2018-12-10T18:56:20.817Z,92.00
2018-12-10T18:59:01.587Z,91.70
2018-12-10T19:01:43.740Z,91.70
2018-12-10T19:04:41.762Z,91.90
2018-12-10T19:07:23.560Z,91.90
2018-12-10T19:10:05.145Z,92.00
2018-12-10T19:12:47.410Z,92.20
2018-12-10T19:15:28.628Z,92.30
2018-12-10T19:18:10.115Z,92.10
2018-12-10T19:20:52.015Z,92.20
2018-12-10T19:23:33.515Z,92.20
2018-12-10T19:26:15.292Z,92.30
2018-12-10T19:28:56.695Z,92.40
2018-12-10T19:31:38.178Z,92.40
2018-12-10T19:34:19.857Z,92.50
2018-12-10T19:37:02.108Z,92.50
2018-12-10T19:39:43.455Z,92.90
2018-12-10T19:42:25.028Z,92.90
2018-12-10T19:45:08.053Z,92.60
2018-12-10T19:47:49.741Z,92.90
2018-12-10T19:50:31.347Z,92.80
2018-12-10T19:53:26.026Z,92.80
2018-12-10T19:56:07.822Z,92.90
2018-12-10T19:58:49.614Z,92.90
2018-12-10T20:01:31.100Z,93.10
2018-12-10T20:04:12.626Z,93.00
2018-12-10T20:06:59.397Z,93.10
2018-12-10T20:09:40.985Z,93.30
2018-12-10T20:12:22.983Z,93.40
2018-12-10T20:15:04.571Z,93.30
2018-12-10T20:17:45.798Z,93.40
2018-12-10T20:20:27.491Z,93.50
2018-12-10T20:23:09.137Z,93.60
2018-12-10T20:25:50.564Z,93.60
2018-12-10T20:28:32.937Z,93.50
2018-12-10T20:31:13.960Z,93.50
2018-12-10T20:33:57.163Z,93.60
2018-12-10T20:36:38.420Z,93.80
2018-12-10T20:39:19.998Z,93.90
2018-12-10T20:42:02.003Z,94.10
2018-12-10T20:44:43.588Z,94.20
2018-12-10T20:47:24.661Z,94.30
2018-12-10T20:50:06.111Z,94.40
2018-12-10T20:52:48.049Z,94.40
2018-12-10T20:55:29.430Z,94.60
2018-12-10T20:58:10.830Z,94.60
2018-12-10T21:00:52.811Z,94.70
2018-12-10T21:03:34.603Z,94.80
2018-12-10T21:06:21.414Z,94.80
2018-12-10T21:09:03.457Z,94.80
2018-12-10T21:11:44.386Z,94.80
2018-12-10T21:14:26.013Z,94.80
2018-12-10T21:17:09.231Z,94.80
2018-12-10T21:19:50.518Z,95.00
2018-12-10T21:22:32.075Z,95.00
2018-12-10T21:25:13.455Z,95.00
2018-12-10T21:27:55.147Z,95.10
2018-12-10T21:30:36.947Z,95.10
2018-12-10T21:33:19.381Z,95.00
2018-12-10T21:36:01.245Z,95.20
2018-12-10T21:38:45.596Z,95.40
2018-12-10T21:41:26.267Z,95.40
2018-12-10T21:44:08.161Z,95.50
2018-12-10T21:46:49.865Z,95.50
2018-12-10T21:49:32.363Z,95.50
2018-12-10T21:52:14.171Z,95.70
2018-12-10T21:54:55.889Z,95.60
2018-12-10T21:57:37.778Z,95.60
2018-12-10T22:00:19.127Z,96.00
2018-12-10T22:03:00.835Z,95.80
2018-12-10T22:05:42.414Z,95.70
2018-12-10T22:08:24.103Z,95.80
2018-12-10T22:11:05.808Z,95.90
2018-12-10T22:13:47.689Z,96.00
2018-12-10T22:16:28.863Z,95.90
2018-12-10T22:19:10.560Z,95.90
2018-12-10T22:21:52.454Z,95.70
2018-12-10T22:24:34.636Z,95.80
2018-12-10T22:27:16.453Z,96.00
2018-12-10T22:29:58.138Z,96.10
2018-12-10T22:32:40.379Z,96.10
2018-12-10T22:35:21.931Z,96.40
2018-12-10T22:38:04.032Z,96.60
2018-12-10T22:40:46.318Z,96.30
2018-12-10T22:43:28.950Z,96.20
2018-12-10T22:46:11.062Z,96.50
2018-12-10T22:48:53.414Z,96.70
2018-12-10T22:51:35.398Z,96.40
2018-12-10T22:54:17.630Z,96.50
2018-12-10T22:56:59.657Z,96.60
2018-12-10T22:59:40.869Z,96.70
2018-12-10T23:02:22.838Z,96.70
2018-12-10T23:05:04.627Z,96.80
2018-12-10T23:07:45.809Z,96.90
2018-12-10T23:10:27.192Z,96.90
2018-12-10T23:13:08.883Z,96.80
2018-12-10T23:15:50.574Z,96.70
2018-12-10T23:18:32.781Z,96.70
2018-12-10T23:21:13.882Z,96.70
2018-12-10T23:23:55.440Z,96.80
2018-12-10T23:26:37.132Z,96.70
2018-12-10T23:29:19.141Z,96.90
2018-12-10T23:32:00.355Z,96.90
2018-12-10T23:34:43.230Z,97.20
2018-12-10T23:37:24.662Z,97.00
2018-12-10T23:40:06.205Z,97.10
2018-12-10T23:42:53.123Z,96.90
2018-12-10T23:45:34.809Z,97.10
2018-12-10T23:48:16.504Z,97.10
2018-12-10T23:50:58.100Z,97.40
2018-12-10T23:53:39.901Z,97.40
2018-12-10T23:56:21.482Z,97.50
2018-12-10T23:59:03.796Z,97.80
